Time;durP1;ratioP1;P1;durP2;ratioP2;P2;SDS_P1;SDS_P2;PMS_P1;PMS_P2;Temp;Humidity;BMP_temperature;BMP_pressure;BME280_temperature;BME280_humidity;BME280_pressure;Samples;Min_cycle;Max_cycle;Signal;HPM_P1;HPM_P2
2021/09/27 00:00:23;;;;;;;;;72.50;63.50;;;;;;;;2;279080025;279080025;-82
2021/09/27 00:09:06;;;;;;;;;85.50;83.00;;;;;;;;2;234068862;234068862;-82
2021/09/27 00:18:06;;;;;;;;;;;;;;;;;;2;279080234;279080234;-83
2021/09/27 00:26:49;;;;;;;;;63.00;50.50;;;;;;;;2;234069895;234069895;-83
2021/09/27 00:35:49;;;;;;;;;77.00;71.00;;;;;;;;2;279081950;279081950;-82
2021/09/27 00:44:32;;;;;;;;;76.50;71.00;;;;;;;;2;234067016;234067016;-82
2021/09/27 00:53:50;;;;;;;;;83.50;80.00;;;;;;;;2;279083201;279083201;-82
2021/09/27 01:02:32;;;;;;;;;86.00;83.00;;;;;;;;2;234068825;234068825;-83
2021/09/27 01:11:42;;;;;;;;;82.50;77.50;;;;;;;;2;279081214;279081214;-81
2021/09/27 01:20:44;;;;;;;;;72.50;63.50;;;;;;;;2;234069259;234069259;-82
2021/09/27 01:29:50;;;;;;;;;71.50;61.50;;;;;;;;2;279080423;279080423;-82
2021/09/27 01:38:33;;;;;;;;;76.00;69.50;;;;;;;;2;234067666;234067666;-82
2021/09/27 01:47:51;;;;;;;;;75.50;68.50;;;;;;;;2;279079603;279079603;-81
2021/09/27 01:56:47;;;;;;;;;69.50;59.50;;;;;;;;2;234070673;234070673;-82
2021/09/27 02:06:08;;;;;;;;;79.00;74.00;;;;;;;;2;279078380;279078380;-82
2021/09/27 02:15:01;;;;;;;;;64.50;51.50;;;;;;;;2;234069449;234069449;-83
2021/09/27 02:24:07;;;;;;;;;73.00;64.00;;;;;;;;2;279082739;279082739;-83
2021/09/27 02:32:59;;;;;;;;;77.50;71.00;;;;;;;;2;234067052;234067052;-82
2021/09/27 02:42:28;;;;;;;;;75.00;71.00;;;;;;;;2;279080902;279080902;-82
2021/09/27 02:51:13;;;;;;;;;78.50;75.00;;;;;;;;2;234068079;234068079;-83
2021/09/27 03:00:20;;;;;;;;;78.50;72.50;;;;;;;;2;279081190;279081190;-83
2021/09/27 03:09:02;;;;;;;;;;;;;;;;;;2;234068497;234068497;-83
2021/09/27 03:18:03;;;;;;;;;77.50;71.50;;;;;;;;2;279082525;279082525;-83
2021/09/27 03:26:45;;;;;;;;;68.50;58.50;;;;;;;;2;234069681;234069681;-83
2021/09/27 03:54:46;;;;;;;;;65.50;54.00;;;;;;;;2;279082222;279082222;-83
2021/09/27 04:03:35;;;;;;;;;76.00;72.00;;;;;;;;2;234067750;234067750;-82
2021/09/27 04:12:40;;;;;;;;;69.00;58.00;;;;;;;;2;279077978;279077978;-83
2021/09/27 04:21:40;;;;;;;;;66.50;55.50;;;;;;;;2;234069465;234069465;-83
2021/09/27 04:30:40;;;;;;;;;;;;;;;;;;2;279079194;279079194;-84
2021/09/27 04:39:25;;;;;;;;;71.50;62.50;;;;;;;;2;234067966;234067966;-84
2021/09/27 04:48:28;;;;;;;;;71.00;60.50;;;;;;;;2;279081004;279081004;-84
2021/09/27 04:57:11;;;;;;;;;;;;;;;;;;2;234067430;234067430;-83
2021/09/27 05:06:21;;;;;;;;;75.50;69.00;;;;;;;;2;279082208;279082208;-82
2021/09/27 05:15:03;;;;;;;;;;;;;;;;;;2;234070504;234070504;-83
2021/09/27 05:24:07;;;;;;;;;3333.00;3333.00;;;;;;;;2;279081904;279081904;-82
2021/09/27 05:32:59;;;;;;;;;2517.50;2515.00;;;;;;;;2;234068849;234068849;-86
2021/09/27 05:41:59;;;;;;;;;2520.50;2518.00;;;;;;;;2;279083087;279083087;-84
2021/09/27 05:51:09;;;;;;;;;2521.50;2519.00;;;;;;;;2;234071027;234071027;-84
2021/09/27 06:00:13;;;;;;;;;2521.00;2518.00;;;;;;;;2;279080501;279080501;-83
2021/09/27 06:57:49;;;;;;;;;83.50;81.00;;;;;;;;2;279085472;279085472;-85
2021/09/27 07:07:04;;;;;;;;;;;;;;;;;;;;;
2021/09/27 12:22:03;;;;;;;;;;;;;;;;;;2;234068124;234068124;-80
2021/09/27 14:03:51;;;;;;;;;;;;;;;;;;;;;
2021/09/27 14:12:27;;;;;;;;;56.00;47.00;;;;;;;;2;234069697;234069697;-84
2021/09/27 14:21:56;;;;;;;;;64.50;56.50;;;;;;;;2;279083450;279083450;-83
2021/09/27 14:30:38;;;;;;;;;53.00;45.00;;;;;;;;2;234071578;234071578;-83
2021/09/27 14:39:42;;;;;;;;;59.50;49.50;;;;;;;;2;279081418;279081418;-84
2021/09/27 14:48:27;;;;;;;;;64.00;54.50;;;;;;;;2;234070598;234070598;-83
2021/09/27 14:57:28;;;;;;;;;57.00;48.00;;;;;;;;2;279080690;279080690;-82
2021/09/27 15:06:13;;;;;;;;;63.50;55.00;;;;;;;;2;234067061;234067061;-82
2021/09/27 15:15:14;;;;;;;;;64.50;52.00;;;;;;;;2;279080266;279080266;-82
2021/09/27 15:23:57;;;;;;;;;72.50;63.50;;;;;;;;2;234068633;234068633;-81
2021/09/27 15:32:57;;;;;;;;;82.50;81.50;;;;;;;;2;279078722;279078722;-81
2021/09/27 15:41:40;;;;;;;;;56.00;47.50;;;;;;;;2;234070255;234070255;-81
2021/09/27 15:50:42;;;;;;;;;60.00;50.00;;;;;;;;2;279082687;279082687;-81
2021/09/27 15:59:26;;;;;;;;;67.50;58.00;;;;;;;;2;234071188;234071188;-81
2021/09/27 16:08:28;;;;;;;;;68.50;59.00;;;;;;;;2;279081748;279081748;-81
2021/09/27 16:17:10;;;;;;;;;;;;;;;;;;2;234068967;234068967;-81
2021/09/27 16:26:12;;;;;;;;;52.50;44.50;;;;;;;;2;279078760;279078760;-81
2021/09/27 16:34:54;;;;;;;;;51.00;43.00;;;;;;;;2;234067765;234067765;-81
2021/09/27 16:43:55;;;;;;;;;48.00;41.50;;;;;;;;2;279084218;279084218;-81
2021/09/27 16:52:37;;;;;;;;;52.50;44.50;;;;;;;;2;234068660;234068660;-81
2021/09/27 17:01:39;;;;;;;;;60.50;50.50;;;;;;;;2;279078763;279078763;-81
2021/09/27 17:10:22;;;;;;;;;62.00;51.50;;;;;;;;2;234066954;234066954;-81
2021/09/27 17:19:23;;;;;;;;;64.50;55.00;;;;;;;;2;279077733;279077733;-83
2021/09/27 17:28:07;;;;;;;;;67.50;50.50;;;;;;;;2;234068399;234068399;-81
2021/09/27 17:37:08;;;;;;;;;53.00;45.00;;;;;;;;2;279081953;279081953;-78
2021/09/27 17:45:50;;;;;;;;;58.50;49.50;;;;;;;;2;234069788;234069788;-78
2021/09/27 17:54:51;;;;;;;;;52.50;44.50;;;;;;;;2;279081184;279081184;-79
2021/09/27 18:03:34;;;;;;;;;57.50;48.00;;;;;;;;2;234066383;234066383;-79
2021/09/27 18:12:36;;;;;;;;;61.50;51.00;;;;;;;;2;279079575;279079575;-79
2021/09/27 18:21:18;;;;;;;;;50.50;43.00;;;;;;;;2;234068170;234068170;-78
2021/09/27 18:30:20;;;;;;;;;42.00;37.00;;;;;;;;2;279082153;279082153;-78
2021/09/27 18:39:03;;;;;;;;;49.50;41.00;;;;;;;;2;234068458;234068458;-78
2021/09/27 18:48:09;;;;;;;;;3333.00;3333.00;;;;;;;;2;279079988;279079988;-79
2021/09/27 18:56:52;;;;;;;;;2526.00;2526.00;;;;;;;;2;234068600;234068600;-78
2021/09/27 19:05:53;;;;;;;;;47.00;41.00;;;;;;;;2;279079351;279079351;-78
2021/09/27 19:14:35;;;;;;;;;50.50;43.00;;;;;;;;2;233942401;233942401;-78
2021/09/27 19:23:36;;;;;;;;;;;;;;;;;;2;279079851;279079851;-78
2021/09/27 19:32:18;;;;;;;;;62.00;53.00;;;;;;;;2;234067507;234067507;-78
2021/09/27 19:41:19;;;;;;;;;51.50;43.50;;;;;;;;2;279080261;279080261;-78
2021/09/27 19:50:01;;;;;;;;;;;;;;;;;;2;234069282;234069282;-82
2021/09/27 19:59:01;;;;;;;;;55.50;46.50;;;;;;;;2;279080726;279080726;-81
2021/09/27 20:07:45;;;;;;;;;52.50;44.50;;;;;;;;2;234070220;234070220;-83
2021/09/27 20:16:45;;;;;;;;;51.50;43.50;;;;;;;;2;279080706;279080706;-80
2021/09/27 20:25:28;;;;;;;;;70.50;62.50;;;;;;;;2;234068240;234068240;-81
2021/09/27 20:34:29;;;;;;;;;61.50;52.00;;;;;;;;2;279081692;279081692;-81
2021/09/27 20:43:12;;;;;;;;;56.00;47.00;;;;;;;;2;234071186;234071186;-81
2021/09/27 20:52:13;;;;;;;;;65.00;55.50;;;;;;;;2;279082901;279082901;-81
2021/09/27 21:00:56;;;;;;;;;61.50;52.50;;;;;;;;2;234066166;234066166;-81
2021/09/27 21:09:56;;;;;;;;;;;;;;;;;;2;279080041;279080041;-81
2021/09/27 21:18:38;;;;;;;;;53.00;45.00;;;;;;;;2;234068633;234068633;-81
2021/09/27 21:27:39;;;;;;;;;51.00;43.00;;;;;;;;2;279079916;279079916;-81
2021/09/27 21:36:24;;;;;;;;;41.00;36.00;;;;;;;;2;234070326;234070326;-81
2021/09/27 21:45:38;;;;;;;;;;;;;;;;;;;;;
2021/09/27 21:54:22;;;;;;;;;47.00;40.00;;;;;;;;2;234093900;234093900;-81
2021/09/27 22:03:22;;;;;;;;;49.50;42.50;;;;;;;;2;279082709;279082709;-81
2021/09/27 22:12:05;;;;;;;;;53.00;45.00;;;;;;;;2;234069012;234069012;-81
2021/09/27 22:21:06;;;;;;;;;;;;;;;;;;2;279080829;279080829;-81
2021/09/27 22:29:50;;;;;;;;;49.00;42.00;;;;;;;;2;234067773;234067773;-81
2021/09/27 22:38:51;;;;;;;;;3333.00;3333.00;;;;;;;;2;279080454;279080454;-81
2021/09/27 22:47:34;;;;;;;;;3333.00;3333.00;;;;;;;;2;234067964;234067964;-81
2021/09/27 22:56:34;;;;;;;;;3333.00;3333.00;;;;;;;;2;279078944;279078944;-81
2021/09/27 23:05:17;;;;;;;;;3333.00;3333.00;;;;;;;;2;234066785;234066785;-81
2021/09/27 23:14:17;;;;;;;;;58.00;49.00;;;;;;;;2;279079429;279079429;-81
2021/09/27 23:23:00;;;;;;;;;67.50;58.50;;;;;;;;2;234068224;234068224;-82
2021/09/27 23:32:00;;;;;;;;;48.50;42.00;;;;;;;;2;279081919;279081919;-81
2021/09/27 23:40:43;;;;;;;;;45.50;39.50;;;;;;;;2;234066554;234066554;-81
2021/09/27 23:49:43;;;;;;;;;26.00;26.00;;;;;;;;2;279080704;279080704;-82
2021/09/27 23:58:26;;;;;;;;;38.00;34.00;;;;;;;;2;234068705;234068705;-81
